Maribel — LAGU6 — position and weather

sailwx.info

Track history (hours):
 
Tides and Currents Weather Stations Pressure Air Temp Water Temp Dewpoint Dewpoint Depression Visibility Wind Speed Wind Dir Waves Ship Positions

Maribel

Last reported at 2018-Jun-24 20:06 UTC. Time now 2018-Jun-25 00:42 UTC.
Position N 37°23' E 004°20'.

Length 229 m; draft 8.3 m.

Type: Tanker. MMSI: 257872000.

Date/timePositionNaut miles runAvg speedWind from/ knotsBaromVisibWave heightAir tempDewpointWater temp
2018-Jun-24 20:06N 37°23' E 004°20'210.4
2018-Jun-24 19:56N 37°23' E 004°18'510.3
2018-Jun-24 19:30N 37°23' E 004°12'510.1
2018-Jun-24 19:00N 37°22' E 004°06'5 9.8
2018-Jun-24 18:30N 37°22' E 003°60'6 9.3
2018-Jun-24 17:53N 37°22' E 003°53'4 9.2
2018-Jun-24 17:30N 37°21' E 003°48'5 9.3
2018-Jun-24 17:00N 37°21' E 003°42'5 9.2
2018-Jun-24 16:30N 37°21' E 003°37'5 9.2
2018-Jun-24 16:00N 37°21' E 003°31'5 9.2
2018-Jun-24 15:27N 37°20' E 003°25'4 9.1
2018-Jun-24 15:00N 37°20' E 003°19'5 9.1
2018-Jun-24 14:29N 37°20' E 003°13'4 9.1
2018-Jun-24 14:00N 37°19' E 003°08'5 9.1
2018-Jun-24 13:30N 37°19' E 003°02'5 9.1
2018-Jun-24 13:00N 37°19' E 002°57'5 9.2
2018-Jun-24 12:30N 37°18' E 002°51'5 9.5
2018-Jun-24 12:00N 37°17' E 002°45'5 9.5
2018-Jun-24 11:30N 37°15' E 002°39'5 9.5
2018-Jun-24 11:00N 37°14' E 002°34'5 9.6
2018-Jun-24 10:30N 37°13' E 002°28'5 9.8
2018-Jun-24 10:00N 37°11' E 002°22'5 9.9
2018-Jun-24 09:30N 37°10' E 002°16'510.2
2018-Jun-24 08:59N 37°09' E 002°10'1010.3
2018-Jun-24 08:04N 37°06' E 001°58'110.4
2018-Jun-24 07:56N 37°06' E 001°56'1910.2
2018-Jun-24 06:02N 37°00' E 001°33'010.3
2018-Jun-24 06:00N 37°00' E 001°33'510.0
2018-Jun-24 05:30N 36°59' E 001°27'1710.1
2018-Jun-24 03:52N 36°54' E 001°07'1110.5
2018-Jun-24 02:47N 36°51' E 000°53'310.4
2018-Jun-24 02:30N 36°50' E 000°50'510.3
2018-Jun-24 02:00N 36°49' E 000°44'510.0
2018-Jun-24 01:29N 36°47' E 000°37'510.1
2018-Jun-24 01:00N 36°46' E 000°31'510.0
2018-Jun-24 00:30N 36°45' E 000°25'510.0
2018-Jun-24 00:00N 36°43' E 000°19'5 9.8
2018-Jun-23 23:30N 36°42' E 000°14'5 9.6
2018-Jun-23 23:00N 36°41' E 000°08'5 9.6
2018-Jun-23 22:30N 36°39' E 000°02'9 9.7
2018-Jun-23 21:33N 36°37' W 000°09'0 9.8
2018-Jun-23 21:30N 36°37' W 000°10'5 9.8
2018-Jun-23 21:00N 36°35' W 000°15'5 9.5
2018-Jun-23 20:30N 36°34' W 000°21'5 9.5
2018-Jun-23 20:00N 36°33' W 000°27'5 9.4
2018-Jun-23 19:30N 36°31' W 000°32'5 9.5
2018-Jun-23 19:00N 36°30' W 000°38'5 9.6
2018-Jun-23 18:30N 36°29' W 000°44'5 9.8
2018-Jun-23 18:00N 36°27' W 000°50'510.2
2018-Jun-23 17:29N 36°26' W 000°56'510.5
2018-Jun-23 16:58N 36°24' W 001°02'  
2018-Jun-19 22:01N 34°35' W 007°09'0 0.9
2018-Jun-19 22:00N 34°35' W 007°09'0 1.0
2018-Jun-19 21:31N 34°34' W 007°09'11 8.3
2018-Jun-19 20:10N 34°23' W 007°09'0 2.7
2018-Jun-19 20:00N 34°23' W 007°09'1 1.5
2018-Jun-19 19:22N 34°24' W 007°09'0 1.3
2018-Jun-19 19:00N 34°25' W 007°09'  
2018-Jun-16 23:12N 34°12' W 007°39'0 1.3
2018-Jun-16 23:00N 34°12' W 007°39'1 1.2
2018-Jun-16 22:30N 34°12' W 007°40'1 1.0
2018-Jun-16 21:59N 34°12' W 007°40'  
Track history (hours):
 
Tides and Currents Weather Stations Pressure Air Temp Water Temp Dewpoint Dewpoint Depression Visibility Wind Speed Wind Dir Waves Ship Positions

Maribel

Last reported at 2018-Jun-24 20:06 UTC. Time now 2018-Jun-25 00:42 UTC.
Position N 37°23' E 004°20'.

Length 229 m; draft 8.3 m.

Type: Tanker. MMSI: 257872000.

Date/timePositionNaut miles runAvg speedWind from/ knotsBaromVisibWave heightAir tempDewpointWater temp
2018-Jun-24 20:06N 37°23' E 004°20'210.4
2018-Jun-24 19:56N 37°23' E 004°18'510.3
2018-Jun-24 19:30N 37°23' E 004°12'510.1
2018-Jun-24 19:00N 37°22' E 004°06'5 9.8
2018-Jun-24 18:30N 37°22' E 003°60'6 9.3
2018-Jun-24 17:53N 37°22' E 003°53'4 9.2
2018-Jun-24 17:30N 37°21' E 003°48'5 9.3
2018-Jun-24 17:00N 37°21' E 003°42'5 9.2
2018-Jun-24 16:30N 37°21' E 003°37'5 9.2
2018-Jun-24 16:00N 37°21' E 003°31'5 9.2
2018-Jun-24 15:27N 37°20' E 003°25'4 9.1
2018-Jun-24 15:00N 37°20' E 003°19'5 9.1
2018-Jun-24 14:29N 37°20' E 003°13'4 9.1
2018-Jun-24 14:00N 37°19' E 003°08'5 9.1
2018-Jun-24 13:30N 37°19' E 003°02'5 9.1
2018-Jun-24 13:00N 37°19' E 002°57'5 9.2
2018-Jun-24 12:30N 37°18' E 002°51'5 9.5
2018-Jun-24 12:00N 37°17' E 002°45'5 9.5
2018-Jun-24 11:30N 37°15' E 002°39'5 9.5
2018-Jun-24 11:00N 37°14' E 002°34'5 9.6
2018-Jun-24 10:30N 37°13' E 002°28'5 9.8
2018-Jun-24 10:00N 37°11' E 002°22'5 9.9
2018-Jun-24 09:30N 37°10' E 002°16'510.2
2018-Jun-24 08:59N 37°09' E 002°10'1010.3
2018-Jun-24 08:04N 37°06' E 001°58'110.4
2018-Jun-24 07:56N 37°06' E 001°56'1910.2
2018-Jun-24 06:02N 37°00' E 001°33'010.3
2018-Jun-24 06:00N 37°00' E 001°33'510.0
2018-Jun-24 05:30N 36°59' E 001°27'1710.1
2018-Jun-24 03:52N 36°54' E 001°07'1110.5
2018-Jun-24 02:47N 36°51' E 000°53'310.4
2018-Jun-24 02:30N 36°50' E 000°50'510.3
2018-Jun-24 02:00N 36°49' E 000°44'510.0
2018-Jun-24 01:29N 36°47' E 000°37'510.1
2018-Jun-24 01:00N 36°46' E 000°31'510.0
2018-Jun-24 00:30N 36°45' E 000°25'510.0
2018-Jun-24 00:00N 36°43' E 000°19'5 9.8
2018-Jun-23 23:30N 36°42' E 000°14'5 9.6
2018-Jun-23 23:00N 36°41' E 000°08'5 9.6
2018-Jun-23 22:30N 36°39' E 000°02'9 9.7
2018-Jun-23 21:33N 36°37' W 000°09'0 9.8
2018-Jun-23 21:30N 36°37' W 000°10'5 9.8
2018-Jun-23 21:00N 36°35' W 000°15'5 9.5
2018-Jun-23 20:30N 36°34' W 000°21'5 9.5
2018-Jun-23 20:00N 36°33' W 000°27'5 9.4
2018-Jun-23 19:30N 36°31' W 000°32'5 9.5
2018-Jun-23 19:00N 36°30' W 000°38'5 9.6
2018-Jun-23 18:30N 36°29' W 000°44'5 9.8
2018-Jun-23 18:00N 36°27' W 000°50'510.2
2018-Jun-23 17:29N 36°26' W 000°56'510.5
2018-Jun-23 16:58N 36°24' W 001°02'  
2018-Jun-19 22:01N 34°35' W 007°09'0 0.9
2018-Jun-19 22:00N 34°35' W 007°09'0 1.0
2018-Jun-19 21:31N 34°34' W 007°09'11 8.3
2018-Jun-19 20:10N 34°23' W 007°09'0 2.7
2018-Jun-19 20:00N 34°23' W 007°09'1 1.5
2018-Jun-19 19:22N 34°24' W 007°09'0 1.3
2018-Jun-19 19:00N 34°25' W 007°09'  
2018-Jun-16 23:12N 34°12' W 007°39'0 1.3
2018-Jun-16 23:00N 34°12' W 007°39'1 1.2
2018-Jun-16 22:30N 34°12' W 007°40'1 1.0
2018-Jun-16 21:59N 34°12' W 007°40'  

Dump ship's entire track history